Time;durP1;ratioP1;P1;durP2;ratioP2;P2;SDS_P1;SDS_P2;PMS_P1;PMS_P2;Temp;Humidity;BMP_temperature;BMP_pressure;BME280_temperature;BME280_humidity;BME280_pressure;Samples;Min_cycle;Max_cycle;Signal;HPM_P1;HPM_P2
2023/03/20 00:03:09;;;;;;;2.28;1.95;;;9.40;99.90;;;;;;840264;26;20324;-77
2023/03/20 00:14:59;;;;;;;4.97;3.10;;;9.30;99.90;;;;;;6173464;28;20060;-76
2023/03/20 00:18:40;;;;;;;4.47;3.50;;;9.30;99.90;;;;;;6089731;29;20177;-76
2023/03/20 00:21:50;;;;;;;4.13;3.70;;;9.20;99.90;;;;;;6189135;28;20060;-77
2023/03/20 00:24:53;;;;;;;4.53;4.13;;;9.30;99.90;;;;;;6293774;28;20049;-76
2023/03/20 00:27:55;;;;;;;4.53;3.72;;;9.30;99.90;;;;;;6298375;28;20127;-77
2023/03/20 00:30:57;;;;;;;4.32;3.88;;;9.40;99.90;;;;;;6298567;28;20097;-76
2023/03/20 00:34:13;;;;;;;4.03;3.30;;;9.50;99.90;;;;;;6298444;28;20048;-76
2023/03/20 00:37:18;;;;;;;4.82;4.05;;;9.50;99.90;;;;;;6299593;28;20405;-77
2023/03/20 00:40:21;;;;;;;3.75;3.17;;;9.50;99.90;;;;;;6299204;28;20052;-76
2023/03/20 00:44:29;;;;;;;4.18;3.78;;;9.50;99.90;;;;;;6299973;28;20048;-77
2023/03/20 00:56:30;;;;;;;;;;;;;;;;;;;;;
2023/03/20 01:29:08;;;;;;;4.32;2.85;;;9.70;99.90;;;;;;6256372;28;20091;-76
2023/03/20 01:32:25;;;;;;;2.60;2.40;;;9.80;99.90;;;;;;6272828;28;20049;-76
2023/03/20 01:35:38;;;;;;;3.10;2.83;;;9.80;99.90;;;;;;6273045;28;20056;-76
2023/03/20 01:38:41;;;;;;;3.35;3.05;;;9.70;99.90;;;;;;6261052;28;20045;-76
2023/03/20 01:41:44;;;;;;;3.95;3.10;;;9.80;99.90;;;;;;6272950;28;20041;-76
2023/03/20 02:00:45;;;;;;;3.25;2.95;;;10.00;99.90;;;;;;6206295;28;20049;-76
2023/03/20 02:03:50;;;;;;;2.65;2.45;;;10.00;99.90;;;;;;6272972;28;20056;-78
2023/03/20 02:11:22;;;;;;;2.47;2.28;;;10.00;99.90;;;;;;6201022;28;20047;-76
2023/03/20 02:18:24;;;;;;;4.57;2.88;;;10.10;99.90;;;;;;6195285;28;20073;-76
2023/03/20 02:22:09;;;;;;;3.40;3.10;;;10.10;99.90;;;;;;6179847;28;20100;-76
2023/03/20 02:25:44;;;;;;;4.75;2.72;;;10.10;99.90;;;;;;6247239;28;20065;-76
2023/03/20 02:29:19;;;;;;;4.18;3.60;;;10.10;99.90;;;;;;6255067;28;20037;-77
2023/03/20 02:33:06;;;;;;;4.20;3.55;;;10.10;99.90;;;;;;6261058;28;20427;-76
2023/03/20 02:36:34;;;;;;;4.03;3.15;;;10.10;99.90;;;;;;6271492;28;20052;-76
2023/03/20 02:39:55;;;;;;;4.63;3.58;;;10.10;99.90;;;;;;6271839;28;20128;-77
2023/03/20 02:43:03;;;;;;;4.35;3.92;;;10.00;99.90;;;;;;6271282;28;20045;-77
2023/03/20 03:29:15;;;;;;;7.72;6.20;;;9.90;99.90;;;;;;6041883;29;20537;-78
2023/03/20 03:32:25;;;;;;;10.63;6.47;;;9.90;99.90;;;;;;6103298;29;20063;-77
2023/03/20 03:35:33;;;;;;;7.30;6.03;;;9.90;99.90;;;;;;6237342;28;20041;-76
2023/03/20 03:38:59;;;;;;;7.03;5.65;;;9.90;99.90;;;;;;6234468;28;20634;-77
2023/03/20 03:42:26;;;;;;;7.35;5.85;;;9.80;99.90;;;;;;6290639;28;20537;-78
2023/03/20 03:45:34;;;;;;;6.22;5.57;;;9.90;99.90;;;;;;6293679;28;20167;-77
2023/03/20 03:48:42;;;;;;;7.32;5.93;;;9.90;99.90;;;;;;6295126;28;20059;-77
2023/03/20 03:51:47;;;;;;;7.18;5.60;;;9.90;99.90;;;;;;6295534;28;20131;-77
2023/03/20 03:54:53;;;;;;;6.60;5.57;;;9.90;99.90;;;;;;6294786;28;20503;-77
2023/03/20 03:57:59;;;;;;;6.75;5.65;;;9.80;99.90;;;;;;6295016;28;20048;-77
2023/03/20 04:01:04;;;;;;;8.00;7.18;;;9.70;99.90;;;;;;6295275;28;20051;-76
2023/03/20 04:04:10;;;;;;;11.63;6.00;;;9.80;99.90;;;;;;6300404;28;20086;-77
2023/03/20 04:07:13;;;;;;;11.48;7.43;;;9.70;99.90;;;;;;6299516;28;20504;-77
2023/03/20 04:10:15;;;;;;;9.02;6.68;;;9.70;99.90;;;;;;6299994;28;20558;-77
2023/03/20 04:52:37;;;;;;;11.27;9.50;;;9.80;99.90;;;;;;5986090;29;20062;-77
2023/03/20 04:55:40;;;;;;;15.10;10.48;;;9.80;99.90;;;;;;5991600;29;20057;-77
2023/03/20 05:10:33;;;;;;;18.08;11.77;;;9.90;99.90;;;;;;6242670;28;20398;-78
2023/03/20 05:13:34;;;;;;;15.23;12.93;;;9.90;99.90;;;;;;6276320;28;20517;-78
2023/03/20 05:16:36;;;;;;;14.93;11.70;;;9.90;99.90;;;;;;6277494;28;20049;-78
2023/03/20 05:23:32;;;;;;;17.63;13.32;;;10.00;99.90;;;;;;6232561;28;20055;-78
2023/03/20 05:27:18;;;;;;;15.73;13.23;;;10.00;99.90;;;;;;6275573;28;20049;-78
2023/03/20 05:30:26;;;;;;;17.45;11.52;;;10.00;99.90;;;;;;6205125;28;20050;-78
2023/03/20 05:33:37;;;;;;;15.63;12.45;;;10.00;99.90;;;;;;6264461;28;20049;-78
2023/03/20 05:36:39;;;;;;;17.30;12.88;;;9.90;99.90;;;;;;6274059;28;20434;-77
2023/03/20 05:39:41;;;;;;;21.67;12.70;;;9.90;99.90;;;;;;6275603;28;20621;-78
2023/03/20 05:42:44;;;;;;;15.73;13.15;;;9.90;99.90;;;;;;6264893;28;20449;-78
2023/03/20 05:45:47;;;;;;;18.10;12.25;;;10.00;99.90;;;;;;6275337;28;20095;-79
2023/03/20 05:48:49;;;;;;;18.77;13.38;;;10.00;99.90;;;;;;6276525;28;20176;-78
2023/03/20 05:51:51;;;;;;;18.33;12.43;;;10.00;99.90;;;;;;6276907;28;20052;-78
2023/03/20 05:54:56;;;;;;;18.90;14.50;;;10.00;99.90;;;;;;6263553;28;20520;-78
2023/03/20 05:57:58;;;;;;;23.52;15.73;;;10.00;99.90;;;;;;6275073;28;20145;-78
2023/03/20 06:01:01;;;;;;;21.55;16.00;;;10.00;99.90;;;;;;6274935;28;20427;-77
2023/03/20 06:04:03;;;;;;;22.55;15.02;;;10.00;99.90;;;;;;6274682;28;20049;-78
2023/03/20 06:07:05;;;;;;;22.60;15.75;;;10.00;99.90;;;;;;6274302;28;20479;-78
2023/03/20 06:10:18;;;;;;;20.45;14.68;;;10.10;99.90;;;;;;6273964;28;20053;-78
2023/03/20 06:16:47;;;;;;;;;;;10.20;99.90;;;;;;6227781;28;20100;-78
2023/03/20 06:20:04;;;;;;;17.02;12.10;;;10.40;99.90;;;;;;6275045;28;19927;-78
2023/03/20 06:23:16;;;;;;;19.50;14.75;;;10.50;99.90;;;;;;6260697;28;20422;-77
2023/03/20 06:26:31;;;;;;;19.27;12.25;;;10.70;99.90;;;;;;6273071;28;20045;-77
2023/03/20 06:29:51;;;;;;;14.38;11.43;;;10.60;99.90;;;;;;6273211;28;20203;-77
2023/03/20 06:32:54;;;;;;;16.50;10.02;;;10.70;99.90;;;;;;6274201;28;20045;-78
2023/03/20 06:36:11;;;;;;;16.75;10.70;;;10.80;99.90;;;;;;6275401;28;20053;-78
2023/03/20 06:39:30;;;;;;;17.13;12.10;;;10.80;99.90;;;;;;6262176;28;20041;-78
2023/03/20 07:39:09;;;;;;;12.68;9.48;;;10.80;99.90;;;;;;6451304;22;20052;-77
2023/03/20 07:42:35;;;;;;;19.55;11.55;;;10.80;99.90;;;;;;6267912;28;20049;-77
2023/03/20 07:45:37;;;;;;;13.70;9.77;;;10.90;99.90;;;;;;6273764;28;20049;-78
2023/03/20 07:48:39;;;;;;;14.00;10.32;;;10.90;99.90;;;;;;6304950;28;20173;-79
2023/03/20 07:51:41;;;;;;;15.45;10.75;;;11.10;99.90;;;;;;6305180;28;20110;-77
2023/03/20 07:54:44;;;;;;;11.90;9.10;;;11.30;99.90;;;;;;6304423;28;20408;-77
2023/03/20 07:57:48;;;;;;;12.70;10.38;;;11.50;99.90;;;;;;6304468;28;20491;-77
2023/03/20 08:00:49;;;;;;;13.50;10.20;;;11.90;99.90;;;;;;6304748;28;20040;-77
2023/03/20 08:03:51;;;;;;;13.73;10.55;;;12.30;99.90;;;;;;6303887;28;20056;-78
2023/03/20 08:06:59;;;;;;;15.43;9.38;;;12.70;99.90;;;;;;6303907;28;20045;-78
2023/03/20 08:10:04;;;;;;;13.93;11.13;;;13.00;99.90;;;;;;6303714;28;20041;-78
2023/03/20 08:13:06;;;;;;;14.82;11.20;;;13.50;99.90;;;;;;6305602;28;20528;-77
2023/03/20 08:16:10;;;;;;;10.43;8.70;;;13.90;99.90;;;;;;6305011;28;20058;-78
2023/03/20 08:23:09;;;;;;;11.98;9.38;;;14.00;99.90;;;;;;6243188;27;20481;-81
2023/03/20 08:26:53;;;;;;;12.75;11.18;;;14.10;99.90;;;;;;6305474;28;20067;-80
2023/03/20 08:33:48;;;;;;;13.10;10.98;;;14.30;99.90;;;;;;6281227;28;20044;-77
2023/03/20 08:37:40;;;;;;;11.10;9.80;;;14.10;99.90;;;;;;6310350;23;20052;-78
2023/03/20 08:40:42;;;;;;;14.85;11.35;;;13.90;99.90;;;;;;6169420;28;20060;-77
2023/03/20 08:43:46;;;;;;;14.07;10.85;;;13.90;99.90;;;;;;6210246;28;20519;-78
2023/03/20 08:46:48;;;;;;;14.18;9.98;;;14.10;99.90;;;;;;6293870;28;20230;-79
2023/03/20 08:49:49;;;;;;;12.30;10.82;;;14.20;99.90;;;;;;6291863;28;20055;-77
2023/03/20 08:52:51;;;;;;;14.30;11.02;;;14.00;99.90;;;;;;6293117;28;20059;-78
2023/03/20 08:56:29;;;;;;;16.30;10.73;;;13.90;99.90;;;;;;6348335;22;20020;-78
2023/03/20 08:59:32;;;;;;;11.70;9.48;;;13.80;99.90;;;;;;6288842;28;20104;-77
2023/03/20 09:02:37;;;;;;;11.27;8.88;;;13.60;99.90;;;;;;6288143;28;20040;-78
2023/03/20 09:17:30;;;;;;;8.25;6.95;;;14.10;99.90;;;;;;6155175;28;20066;-78
2023/03/20 09:20:31;;;;;;;8.85;6.85;;;14.40;99.90;;;;;;6164664;28;20129;-79
2023/03/20 09:44:44;;;;;;;7.38;5.57;;;14.80;99.90;;;;;;6195615;28;20061;-80
2023/03/20 09:51:57;;;;;;;9.68;6.80;;;14.80;99.90;;;;;;6213431;28;20480;-80
2023/03/20 09:55:18;;;;;;;6.75;5.50;;;15.20;99.90;;;;;;6268837;28;20124;-78
2023/03/20 10:45:26;;;;;;;6.28;4.75;;;16.20;95.40;;;;;;5855191;29;20042;-78
2023/03/20 11:13:41;;;;;;;7.65;4.85;;;17.80;92.50;;;;;;6086738;28;20047;-78
2023/03/20 12:08:58;;;;;;;6.15;4.60;;;17.80;87.60;;;;;;6182480;28;20050;-78
2023/03/20 12:19:50;;;;;;;6.95;5.55;;;17.00;87.90;;;;;;6260416;28;20053;-78
2023/03/20 12:23:37;;;;;;;3.10;2.67;;;17.00;87.30;;;;;;6275119;28;20048;-78
2023/03/20 12:26:45;;;;;;;2.38;2.17;;;17.10;87.40;;;;;;6277176;28;20527;-78
2023/03/20 12:29:50;;;;;;;4.20;3.15;;;17.10;87.00;;;;;;6266719;28;20053;-80
2023/03/20 12:33:07;;;;;;;6.63;3.17;;;17.10;87.30;;;;;;6277859;28;20048;-78
2023/03/20 12:36:15;;;;;;;1.50;1.40;;;17.10;86.20;;;;;;6253240;28;20136;-77
2023/03/20 12:39:20;;;;;;;2.03;1.83;;;17.10;85.60;;;;;;6265075;28;20045;-77
2023/03/20 12:42:37;;;;;;;2.15;2.05;;;17.50;84.90;;;;;;6277258;28;20041;-78
2023/03/20 12:45:42;;;;;;;2.88;2.35;;;17.70;84.10;;;;;;6276126;28;20045;-77
2023/03/20 12:48:55;;;;;;;3.63;3.20;;;18.00;83.20;;;;;;6277602;28;20041;-78
2023/03/20 12:52:09;;;;;;;4.85;3.30;;;18.40;82.00;;;;;;6279217;28;20052;-79
2023/03/20 12:55:24;;;;;;;3.13;1.75;;;18.00;81.50;;;;;;6279954;28;20048;-82
2023/03/20 12:58:53;;;;;;;3.95;3.22;;;17.90;82.80;;;;;;6279125;28;20149;-81
2023/03/20 13:01:59;;;;;;;2.40;1.92;;;17.90;81.80;;;;;;6269451;28;20112;-81
2023/03/20 13:05:13;;;;;;;6.45;5.22;;;17.70;80.10;;;;;;6267869;28;20131;-79
2023/03/20 13:08:57;;;;;;;3.13;1.90;;;17.50;80.50;;;;;;6277897;28;20500;-79
2023/03/20 13:12:08;;;;;;;1.67;1.52;;;17.50;80.00;;;;;;6222302;28;20052;-79
2023/03/20 13:15:23;;;;;;;3.80;2.17;;;17.40;80.60;;;;;;6277246;28;20049;-80
2023/03/20 13:18:40;;;;;;;6.78;2.72;;;17.20;79.70;;;;;;6278090;28;20045;-80
2023/03/20 13:21:56;;;;;;;9.30;7.65;;;17.00;80.50;;;;;;6277230;28;20049;-80
2023/03/20 13:25:05;;;;;;;4.82;4.20;;;17.20;79.80;;;;;;6266617;28;20613;-80
2023/03/20 13:28:18;;;;;;;6.18;4.03;;;17.30;79.80;;;;;;6277105;28;20049;-79
2023/03/20 13:31:33;;;;;;;4.93;3.55;;;17.40;79.20;;;;;;6277435;28;20052;-82
2023/03/20 13:34:59;;;;;;;4.28;3.72;;;17.40;78.50;;;;;;6268884;28;20082;-81
2023/03/20 13:38:22;;;;;;;2.53;2.17;;;17.30;77.80;;;;;;6379243;22;20083;-81
2023/03/20 13:41:26;;;;;;;5.25;4.85;;;17.00;78.00;;;;;;6302463;28;20115;-79
2023/03/20 13:44:41;;;;;;;5.05;2.67;;;17.10;78.70;;;;;;6291544;28;20059;-82
2023/03/20 13:47:46;;;;;;;3.65;3.28;;;17.10;78.80;;;;;;6302868;28;20056;-79
2023/03/20 13:50:54;;;;;;;6.40;4.90;;;17.20;78.40;;;;;;6302708;28;20048;-80
2023/03/20 13:54:04;;;;;;;4.87;4.30;;;17.10;78.10;;;;;;6301266;28;20392;-79
2023/03/20 13:57:16;;;;;;;6.18;5.57;;;17.00;78.20;;;;;;6301645;28;20283;-79
2023/03/20 14:00:28;;;;;;;3.35;2.83;;;17.00;78.40;;;;;;6287120;28;20077;-80
2023/03/20 14:03:32;;;;;;;5.80;2.75;;;17.00;78.10;;;;;;6298136;28;20051;-80
2023/03/20 14:06:48;;;;;;;5.20;2.72;;;17.00;78.00;;;;;;6294325;28;20047;-80
2023/03/20 14:09:54;;;;;;;2.80;2.58;;;17.10;77.70;;;;;;6296751;28;20048;-81
2023/03/20 14:13:00;;;;;;;5.63;2.83;;;17.20;77.90;;;;;;6296618;28;20129;-80
2023/03/20 14:16:19;;;;;;;8.00;3.60;;;17.10;77.90;;;;;;6298082;28;20056;-82
2023/03/20 14:19:34;;;;;;;5.60;3.20;;;17.10;77.90;;;;;;6286774;28;20048;-80
2023/03/20 14:22:41;;;;;;;17.02;15.38;;;17.20;78.30;;;;;;6295415;28;20043;-79
2023/03/20 14:33:44;;;;;;;2.75;2.55;;;17.00;78.30;;;;;;6246244;28;20041;-79
2023/03/20 14:37:36;;;;;;;8.73;4.68;;;17.00;78.30;;;;;;6293768;28;20131;-81
2023/03/20 14:40:47;;;;;;;3.65;2.40;;;17.00;78.40;;;;;;6213548;28;20464;-80
2023/03/20 14:44:11;;;;;;;6.95;2.88;;;16.90;78.30;;;;;;6218525;28;20046;-79
2023/03/20 14:47:22;;;;;;;8.18;5.25;;;16.80;77.90;;;;;;6278855;28;20080;-78
2023/03/20 14:50:34;;;;;;;2.78;2.20;;;16.80;78.20;;;;;;6293613;28;20071;-81
2023/03/20 14:53:36;;;;;;;5.05;2.40;;;16.80;78.10;;;;;;6293336;28;20058;-79
2023/03/20 14:56:39;;;;;;;4.35;3.00;;;16.60;78.10;;;;;;6295122;28;20059;-78
2023/03/20 14:59:41;;;;;;;3.10;2.00;;;16.50;78.30;;;;;;6294280;28;20048;-79
2023/03/20 15:02:47;;;;;;;4.90;3.35;;;16.50;78.40;;;;;;6296626;28;20044;-80
2023/03/20 15:05:59;;;;;;;5.15;4.65;;;16.50;78.60;;;;;;6293685;28;20060;-79
2023/03/20 16:39:42;;;;;;;8.63;3.58;;;15.10;82.40;;;;;;6890024;23;20052;-81
2023/03/20 16:42:44;;;;;;;6.22;3.70;;;15.00;82.70;;;;;;6267131;28;20515;-81
2023/03/20 16:45:53;;;;;;;5.68;5.03;;;14.90;83.30;;;;;;6279331;28;20071;-80
2023/03/20 16:48:57;;;;;;;10.25;6.80;;;14.80;83.50;;;;;;6276708;28;20114;-79
2023/03/20 16:52:00;;;;;;;4.15;3.13;;;14.60;83.50;;;;;;6276173;28;20490;-80
2023/03/20 16:55:07;;;;;;;2.97;2.38;;;14.50;83.80;;;;;;6277358;28;20045;-80
2023/03/20 17:18:18;;;;;;;5.07;3.53;;;13.80;86.20;;;;;;6288841;23;20108;-84
2023/03/20 17:21:56;;;;;;;4.43;3.78;;;13.60;86.10;;;;;;6285916;28;20522;-82
2023/03/20 17:25:05;;;;;;;5.28;3.42;;;13.50;87.00;;;;;;6286590;28;21332;-81
2023/03/20 17:28:07;;;;;;;3.47;3.10;;;13.50;87.40;;;;;;6295424;23;20052;-82
2023/03/20 17:31:10;;;;;;;6.05;4.10;;;13.50;87.70;;;;;;6281134;28;20101;-78
2023/03/20 17:34:14;;;;;;;3.60;3.10;;;13.50;88.10;;;;;;6283515;28;20041;-79
2023/03/20 17:37:27;;;;;;;4.97;3.30;;;13.40;88.40;;;;;;6282731;28;20495;-80
2023/03/20 17:40:29;;;;;;;4.75;3.78;;;13.40;89.00;;;;;;6290383;28;20055;-80
2023/03/20 17:43:31;;;;;;;6.95;4.13;;;13.30;89.20;;;;;;6292220;28;20052;-80
2023/03/20 17:46:34;;;;;;;12.40;7.47;;;13.30;89.60;;;;;;6287059;28;20052;-79
2023/03/20 17:49:37;;;;;;;35.00;22.30;;;13.30;89.90;;;;;;6289458;28;20494;-79
2023/03/20 17:52:39;;;;;;;131.35;91.70;;;13.20;90.10;;;;;;6284964;28;20045;-80
2023/03/20 17:55:40;;;;;;;42.33;28.98;;;13.20;90.20;;;;;;6285777;28;20060;-79
2023/03/20 17:58:43;;;;;;;39.85;28.98;;;13.10;90.30;;;;;;6281913;28;20048;-80
2023/03/20 18:01:45;;;;;;;10.32;9.02;;;13.10;90.50;;;;;;6283675;28;20052;-80
2023/03/20 18:04:54;;;;;;;10.35;8.85;;;13.00;90.60;;;;;;6282212;28;20061;-80
2023/03/20 18:08:26;;;;;;;8.80;7.93;;;13.10;90.70;;;;;;6278998;28;20048;-80
2023/03/20 18:16:04;;;;;;;7.65;6.88;;;13.10;91.00;;;;;;6090732;29;20079;-79
2023/03/20 18:23:31;;;;;;;7.55;6.40;;;13.00;91.20;;;;;;6018400;29;20962;-80
2023/03/20 18:29:46;;;;;;;5.22;4.15;;;12.90;91.40;;;;;;6220931;28;20104;-77
2023/03/20 18:32:48;;;;;;;4.13;2.78;;;12.90;91.50;;;;;;6246371;28;20064;-78
2023/03/20 18:35:50;;;;;;;4.60;3.45;;;12.90;91.70;;;;;;6245577;28;20488;-79
2023/03/20 18:38:53;;;;;;;5.22;4.07;;;12.60;91.80;;;;;;6242029;28;20038;-78
2023/03/20 18:41:55;;;;;;;3.92;3.63;;;12.60;92.00;;;;;;6238087;28;20056;-80
2023/03/20 18:44:56;;;;;;;8.82;3.97;;;12.60;92.20;;;;;;6240761;28;20048;-77
2023/03/20 18:48:02;;;;;;;5.03;3.55;;;12.60;92.40;;;;;;6238520;28;21274;-78
2023/03/20 18:51:04;;;;;;;7.63;3.30;;;12.50;92.50;;;;;;6236907;28;20057;-77
2023/03/20 18:54:07;;;;;;;3.83;3.45;;;12.50;92.60;;;;;;6239371;28;20050;-77
2023/03/20 18:57:11;;;;;;;3.35;2.85;;;12.50;93.10;;;;;;6235593;28;20068;-77
2023/03/20 19:00:20;;;;;;;3.75;2.58;;;12.40;93.10;;;;;;6237730;28;20057;-77
2023/03/20 19:03:23;;;;;;;4.72;3.30;;;12.40;93.50;;;;;;6236525;28;20052;-77
2023/03/20 19:06:25;;;;;;;3.97;3.42;;;12.30;93.70;;;;;;6235851;28;20416;-77
2023/03/20 19:09:31;;;;;;;7.40;3.20;;;12.30;93.90;;;;;;6235743;28;20064;-76
2023/03/20 19:12:32;;;;;;;3.83;3.15;;;12.20;94.20;;;;;;6238187;28;20053;-78
2023/03/20 19:15:37;;;;;;;3.83;3.00;;;12.20;94.30;;;;;;6237535;28;20062;-77
2023/03/20 19:18:39;;;;;;;5.90;3.63;;;12.20;94.50;;;;;;6238398;28;20131;-77
2023/03/20 19:21:41;;;;;;;11.60;5.07;;;12.20;94.70;;;;;;6237160;28;20060;-76
2023/03/20 19:24:44;;;;;;;7.78;4.60;;;12.20;94.80;;;;;;6237733;28;20052;-77
2023/03/20 19:27:45;;;;;;;4.43;3.30;;;12.20;95.20;;;;;;6246110;28;20182;-77
2023/03/20 19:30:47;;;;;;;5.75;4.43;;;12.10;95.10;;;;;;6260898;28;20380;-77
2023/03/20 19:33:50;;;;;;;4.47;3.58;;;12.10;95.50;;;;;;6260556;28;20044;-77
2023/03/20 19:36:51;;;;;;;4.35;2.40;;;12.00;95.30;;;;;;6260683;28;20044;-77
2023/03/20 19:39:54;;;;;;;3.83;2.92;;;11.90;95.50;;;;;;6263078;28;20411;-78
2023/03/20 19:42:56;;;;;;;3.92;2.08;;;11.80;95.50;;;;;;6265008;28;20061;-77
2023/03/20 19:45:58;;;;;;;3.28;2.97;;;11.80;95.70;;;;;;6265019;28;20046;-78
2023/03/20 19:49:00;;;;;;;2.97;2.47;;;11.80;95.80;;;;;;6258889;28;20045;-79
2023/03/20 19:52:04;;;;;;;4.97;3.13;;;11.80;96.00;;;;;;6264599;28;20045;-78
2023/03/20 19:55:12;;;;;;;5.32;2.58;;;11.80;96.10;;;;;;6259567;28;20128;-79
2023/03/20 19:58:14;;;;;;;4.85;2.28;;;11.80;96.30;;;;;;6261493;28;20045;-78
2023/03/20 20:01:18;;;;;;;5.03;2.45;;;11.70;96.50;;;;;;6261923;28;20518;-78
2023/03/20 20:04:20;;;;;;;2.15;1.88;;;11.70;96.70;;;;;;6259721;28;20053;-76
2023/03/20 20:07:21;;;;;;;2.95;1.75;;;11.70;96.90;;;;;;6256899;28;20045;-76
2023/03/20 20:10:26;;;;;;;5.43;2.40;;;11.70;97.10;;;;;;6261285;28;20037;-77
2023/03/20 20:17:11;;;;;;;4.90;2.28;;;11.70;97.40;;;;;;6228774;28;20049;-77
2023/03/20 20:20:15;;;;;;;3.17;2.80;;;11.70;97.50;;;;;;6262102;28;20053;-77
2023/03/20 20:23:18;;;;;;;4.07;2.95;;;11.60;97.40;;;;;;6261998;28;20498;-77
2023/03/20 20:26:21;;;;;;;3.90;2.45;;;11.60;97.70;;;;;;6259117;28;20060;-77
2023/03/20 20:29:24;;;;;;;2.40;2.20;;;11.60;97.90;;;;;;6261659;28;20041;-77
2023/03/20 20:32:27;;;;;;;2.90;2.63;;;11.70;98.00;;;;;;6260327;28;20437;-77
2023/03/20 20:35:30;;;;;;;4.15;2.75;;;11.60;98.00;;;;;;6262578;28;20049;-77
2023/03/20 20:38:31;;;;;;;5.68;2.50;;;11.60;98.20;;;;;;6261831;28;20049;-77
2023/03/20 20:41:35;;;;;;;3.63;2.30;;;11.60;98.30;;;;;;6261040;28;20037;-77
2023/03/20 20:44:36;;;;;;;4.90;2.28;;;11.50;98.40;;;;;;6263928;28;20041;-77
2023/03/20 20:47:41;;;;;;;3.25;2.17;;;11.50;98.60;;;;;;6266346;28;20509;-78
2023/03/20 20:50:45;;;;;;;2.65;2.42;;;11.40;98.70;;;;;;6253484;28;20136;-76
2023/03/20 20:53:47;;;;;;;5.68;2.63;;;11.40;98.90;;;;;;6266860;28;20474;-77
2023/03/20 20:57:13;;;;;;;2.13;1.95;;;11.40;99.10;;;;;;6264695;28;21493;-77
2023/03/20 21:00:16;;;;;;;5.03;2.10;;;11.30;99.30;;;;;;6263472;28;20075;-77
2023/03/20 21:03:18;;;;;;;4.10;2.33;;;11.20;99.40;;;;;;6262182;28;20049;-77
2023/03/20 21:06:20;;;;;;;6.88;2.03;;;11.20;99.50;;;;;;6262838;28;20065;-77
2023/03/20 21:09:23;;;;;;;2.95;2.20;;;11.10;99.70;;;;;;6265796;28;20052;-77
2023/03/20 21:12:26;;;;;;;2.30;2.10;;;11.10;99.90;;;;;;6265014;28;20049;-77
2023/03/20 21:15:28;;;;;;;2.95;2.60;;;11.10;99.90;;;;;;6265796;28;20057;-76
2023/03/20 21:18:29;;;;;;;4.57;2.30;;;11.10;99.90;;;;;;6265332;28;20048;-77
2023/03/20 21:21:33;;;;;;;3.00;2.40;;;11.00;99.90;;;;;;6263702;28;20080;-77
2023/03/20 21:24:36;;;;;;;2.05;1.85;;;11.00;99.90;;;;;;6255035;28;20049;-76
2023/03/20 21:27:39;;;;;;;5.63;3.33;;;10.90;99.90;;;;;;6266978;28;20053;-76
2023/03/20 21:30:41;;;;;;;5.40;2.67;;;10.90;99.90;;;;;;6266506;28;20060;-77
2023/03/20 21:33:43;;;;;;;4.05;2.70;;;10.90;99.90;;;;;;6264546;28;20499;-77
2023/03/20 21:36:45;;;;;;;3.05;2.67;;;10.90;99.90;;;;;;6263830;28;20655;-76
2023/03/20 21:39:51;;;;;;;3.33;2.97;;;10.90;99.90;;;;;;6264875;28;20053;-76
2023/03/20 21:42:54;;;;;;;2.47;2.28;;;10.80;99.90;;;;;;6265654;28;20091;-77
2023/03/20 21:45:55;;;;;;;2.80;2.60;;;10.80;99.90;;;;;;6264678;28;20045;-77
2023/03/20 21:48:57;;;;;;;3.53;2.65;;;10.70;99.90;;;;;;6263832;28;20041;-77
2023/03/20 21:52:00;;;;;;;7.53;3.67;;;10.70;99.90;;;;;;6264804;28;20510;-77
2023/03/20 21:55:01;;;;;;;4.65;2.78;;;10.70;99.90;;;;;;6263459;28;20056;-78
2023/03/20 21:58:04;;;;;;;5.20;2.35;;;10.70;99.90;;;;;;6264045;28;20049;-77
2023/03/20 22:01:07;;;;;;;3.60;2.58;;;10.70;99.90;;;;;;6264660;28;20056;-77
2023/03/20 22:04:08;;;;;;;2.22;2.03;;;10.70;99.90;;;;;;6263105;28;20049;-77
2023/03/20 22:07:10;;;;;;;3.05;2.00;;;10.70;99.90;;;;;;6264050;28;20049;-77
2023/03/20 22:10:12;;;;;;;6.95;2.75;;;10.70;99.90;;;;;;6262703;28;20045;-77
2023/03/20 22:13:15;;;;;;;3.03;2.72;;;10.60;99.90;;;;;;6262163;28;20044;-78
2023/03/20 22:16:16;;;;;;;4.55;2.53;;;10.60;99.90;;;;;;6263471;28;20061;-77
2023/03/20 22:19:20;;;;;;;3.60;2.50;;;10.50;99.90;;;;;;6265716;28;20543;-77
2023/03/20 22:22:22;;;;;;;3.83;2.28;;;10.50;99.90;;;;;;6264435;28;20176;-77
2023/03/20 22:29:00;;;;;;;3.33;2.60;;;10.30;99.90;;;;;;6262043;28;20039;-77
2023/03/20 22:32:05;;;;;;;3.08;2.78;;;10.40;99.90;;;;;;6262556;28;20049;-77
2023/03/20 22:35:10;;;;;;;3.65;2.95;;;10.40;99.90;;;;;;6260588;28;20608;-77
2023/03/20 22:38:17;;;;;;;4.85;2.65;;;10.30;99.90;;;;;;6261676;28;20048;-77
2023/03/20 22:41:22;;;;;;;4.03;2.83;;;10.30;99.90;;;;;;6242070;28;20063;-77
2023/03/20 22:44:36;;;;;;;5.38;3.38;;;10.40;99.90;;;;;;6251111;28;20044;-76
2023/03/20 22:47:38;;;;;;;3.97;2.85;;;10.40;99.90;;;;;;6260703;28;20049;-76
2023/03/20 22:50:40;;;;;;;4.43;2.47;;;10.40;99.90;;;;;;6258203;28;20041;-76
2023/03/20 22:53:41;;;;;;;4.60;2.40;;;10.40;99.90;;;;;;6249806;28;20408;-77
2023/03/20 22:56:43;;;;;;;6.32;3.53;;;10.40;99.90;;;;;;6261481;28;20053;-78
2023/03/20 22:59:46;;;;;;;9.15;2.97;;;10.40;99.90;;;;;;6262679;28;20048;-78
2023/03/20 23:02:48;;;;;;;3.42;3.13;;;10.40;99.90;;;;;;6251735;28;20040;-77
2023/03/20 23:05:52;;;;;;;3.60;2.65;;;10.40;99.90;;;;;;6260437;28;20516;-77
2023/03/20 23:08:55;;;;;;;3.53;2.63;;;10.40;99.90;;;;;;6258272;28;20400;-79
2023/03/20 23:11:57;;;;;;;5.43;2.65;;;10.40;99.90;;;;;;6263627;28;20547;-78
2023/03/20 23:15:00;;;;;;;3.05;2.75;;;10.30;99.90;;;;;;6262436;28;20439;-77
2023/03/20 23:18:02;;;;;;;5.55;2.45;;;10.30;99.90;;;;;;6263369;28;20049;-76
2023/03/20 23:21:05;;;;;;;3.28;3.00;;;10.20;99.90;;;;;;6261504;28;20051;-79
2023/03/20 23:24:08;;;;;;;3.20;2.90;;;10.20;99.90;;;;;;6261751;28;20143;-78
2023/03/20 23:27:10;;;;;;;5.70;3.35;;;10.20;99.90;;;;;;6262391;28;20075;-77
2023/03/20 23:30:14;;;;;;;3.70;3.08;;;10.20;99.90;;;;;;6261264;28;20033;-77
2023/03/20 23:33:16;;;;;;;3.70;3.40;;;10.20;99.90;;;;;;6261024;28;20045;-78
2023/03/20 23:36:18;;;;;;;5.22;3.50;;;10.20;99.90;;;;;;6263024;28;20055;-77
2023/03/20 23:39:20;;;;;;;3.33;3.00;;;10.10;99.90;;;;;;6257161;28;20044;-78
2023/03/20 23:42:21;;;;;;;3.78;3.38;;;10.10;99.90;;;;;;6259316;28;20044;-77
2023/03/20 23:45:24;;;;;;;3.83;3.42;;;10.10;99.90;;;;;;6259631;28;20053;-77
2023/03/20 23:48:26;;;;;;;6.47;4.22;;;10.10;99.90;;;;;;6260472;28;22831;-77
2023/03/20 23:51:28;;;;;;;6.10;3.78;;;10.10;99.90;;;;;;6261109;28;20059;-77
2023/03/20 23:54:29;;;;;;;4.40;3.40;;;10.00;99.90;;;;;;6261397;28;20045;-77
2023/03/20 23:57:31;;;;;;;4.28;3.83;;;9.90;99.90;;;;;;6260203;28;20041;-77
